Time;durP1;ratioP1;P1;durP2;ratioP2;P2;SDS_P1;SDS_P2;PMS_P1;PMS_P2;Temp;Humidity;BMP_temperature;BMP_pressure;BME280_temperature;BME280_humidity;BME280_pressure;Samples;Min_cycle;Max_cycle;Signal;HPM_P1;HPM_P2
2022/01/26 00:06:44;;;;;;;86.72;32.78;;;5.00;70.00;;;;;;4975707;28;20245;-88
2022/01/26 00:09:12;;;;;;;86.68;33.65;;;5.00;70.20;;;;;;4973903;28;20195;-87
2022/01/26 00:11:39;;;;;;;95.60;33.28;;;5.00;70.20;;;;;;4973902;28;20230;-87
2022/01/26 00:14:52;;;;;;;93.65;36.25;;;5.00;70.30;;;;;;4975651;28;20715;-88
2022/01/26 00:17:18;;;;;;;88.30;33.63;;;5.10;70.20;;;;;;4989566;28;20168;-88
2022/01/26 00:20:15;;;;;;;96.30;32.67;;;5.00;70.20;;;;;;4975925;28;20279;-88
2022/01/26 00:38:42;;;;;;;86.28;32.97;;;5.10;70.10;;;;;;4989324;28;20207;-88
2022/01/26 00:41:16;;;;;;;100.60;35.45;;;5.10;70.20;;;;;;4998053;28;20211;-88
2022/01/26 00:43:49;;;;;;;86.60;34.70;;;5.10;70.30;;;;;;4998396;28;20253;-89
2022/01/26 00:46:16;;;;;;;101.55;37.28;;;5.20;70.30;;;;;;4995063;28;20576;-88
2022/01/26 00:48:43;;;;;;;108.40;36.13;;;5.30;70.20;;;;;;4993550;28;20176;-88
2022/01/26 00:51:14;;;;;;;103.18;37.65;;;5.40;70.00;;;;;;4984483;28;20200;-88
2022/01/26 00:53:50;;;;;;;99.28;37.08;;;5.40;70.00;;;;;;4995084;28;20547;-89
2022/01/26 00:56:16;;;;;;;88.10;35.45;;;5.40;70.00;;;;;;4997566;28;20242;-88
2022/01/26 00:58:42;;;;;;;100.00;36.08;;;5.40;69.80;;;;;;4976658;28;20186;-88
2022/01/26 01:01:09;;;;;;;96.93;35.67;;;5.70;69.50;;;;;;4976144;28;20204;-88
2022/01/26 01:03:39;;;;;;;92.78;37.20;;;5.80;68.60;;;;;;4989438;28;20183;-88
2022/01/26 01:08:31;;;;;;;93.57;35.53;;;5.90;68.10;;;;;;4985326;28;20242;-88
2022/01/26 01:11:17;;;;;;;95.93;35.58;;;6.00;68.10;;;;;;4978221;28;20553;-88
2022/01/26 01:13:43;;;;;;;109.40;37.55;;;6.00;68.20;;;;;;4976125;28;20791;-88
2022/01/26 01:16:17;;;;;;;106.30;38.22;;;6.00;68.10;;;;;;4978195;28;20655;-88
2022/01/26 01:18:49;;;;;;;111.38;37.88;;;6.10;67.90;;;;;;4988411;28;20191;-88
2022/01/26 01:21:50;;;;;;;97.65;36.33;;;6.10;67.30;;;;;;4994830;28;20282;-88
2022/01/26 01:29:43;;;;;;;104.05;36.60;;;6.20;67.20;;;;;;4988242;28;20189;-88
2022/01/26 01:32:27;;;;;;;95.72;33.60;;;5.70;67.30;;;;;;4989562;28;20204;-88
2022/01/26 01:34:52;;;;;;;96.68;33.67;;;5.70;68.00;;;;;;4995187;28;20178;-88
2022/01/26 01:37:18;;;;;;;97.30;37.67;;;5.80;68.30;;;;;;4994640;28;20176;-88
2022/01/26 01:39:44;;;;;;;96.90;38.17;;;5.70;68.40;;;;;;4967829;28;20191;-88
2022/01/26 01:42:10;;;;;;;100.67;35.80;;;5.60;68.50;;;;;;4975419;28;20585;-87
2022/01/26 01:44:36;;;;;;;105.27;37.07;;;5.60;68.90;;;;;;4976687;28;20295;-88
2022/01/26 01:47:05;;;;;;;110.60;37.80;;;5.40;69.00;;;;;;4990133;28;20533;-87
2022/01/26 01:49:31;;;;;;;104.25;35.17;;;5.30;69.40;;;;;;4988563;28;20180;-88
2022/01/26 01:52:02;;;;;;;99.27;37.50;;;5.40;69.80;;;;;;4983846;28;20234;-88
2022/01/26 01:54:29;;;;;;;122.20;40.05;;;5.50;69.60;;;;;;4976995;28;21036;-88
2022/01/26 01:56:58;;;;;;;105.80;38.17;;;5.60;69.40;;;;;;4978199;28;20188;-87
2022/01/26 01:59:33;;;;;;;106.13;38.90;;;5.60;69.30;;;;;;4961538;28;20211;-88
2022/01/26 02:02:00;;;;;;;121.07;42.42;;;5.60;69.40;;;;;;4988389;28;20205;-88
2022/01/26 02:04:26;;;;;;;109.32;37.80;;;5.50;69.60;;;;;;4995346;28;20199;-88
2022/01/26 02:06:52;;;;;;;108.32;39.78;;;5.60;69.70;;;;;;4996263;28;20176;-88
2022/01/26 02:09:18;;;;;;;112.10;39.10;;;5.50;69.50;;;;;;5001058;28;20218;-88
2022/01/26 02:11:50;;;;;;;123.60;38.70;;;5.40;69.30;;;;;;5004614;28;20210;-88
2022/01/26 02:14:42;;;;;;;123.43;40.85;;;5.60;69.50;;;;;;4998738;28;20438;-89
2022/01/26 02:17:15;;;;;;;114.55;39.70;;;5.60;69.40;;;;;;4984161;28;20180;-87
2022/01/26 02:50:25;;;;;;;115.55;38.08;;;4.70;72.30;;;;;;4975857;28;20262;-88
2022/01/26 02:55:33;;;;;;;112.80;39.33;;;4.60;73.00;;;;;;4975785;28;20664;-88
2022/01/26 02:58:33;;;;;;;110.63;35.85;;;4.60;73.30;;;;;;4974628;28;20428;-88
2022/01/26 03:03:22;;;;;;;115.60;39.60;;;4.70;73.60;;;;;;4975329;28;20176;-88
2022/01/26 03:06:28;;;;;;;116.07;37.70;;;4.80;73.10;;;;;;4976480;28;20202;-88
2022/01/26 03:08:44;;;;;;;118.15;37.78;;;5.00;73.60;;;;;;4974287;28;20180;-88
2022/01/26 03:11:14;;;;;;;118.00;38.00;;;4.80;72.70;;;;;;4974266;28;20294;-88
2022/01/26 03:13:47;;;;;;;107.63;38.28;;;4.90;72.90;;;;;;4973606;28;20187;-89
2022/01/26 03:16:20;;;;;;;120.78;41.38;;;5.20;72.90;;;;;;4974491;28;20168;-88
2022/01/26 03:21:45;;;;;;;111.50;39.22;;;5.10;72.50;;;;;;4975975;28;20211;-88
2022/01/26 03:28:15;;;;;;;122.55;44.88;;;5.60;72.10;;;;;;4975728;28;20187;-89
2022/01/26 03:38:06;;;;;;;100.90;37.05;;;5.50;71.20;;;;;;4982136;28;20167;-88
2022/01/26 03:40:34;;;;;;;119.53;40.50;;;5.70;71.20;;;;;;4997753;28;20219;-87
2022/01/26 03:43:00;;;;;;;130.13;39.58;;;5.50;71.00;;;;;;4993595;28;20180;-88
2022/01/26 03:45:27;;;;;;;121.82;39.72;;;5.40;71.10;;;;;;4982712;28;20216;-88
2022/01/26 03:47:56;;;;;;;105.40;39.78;;;5.30;71.20;;;;;;4982855;28;20211;-88
2022/01/26 03:50:23;;;;;;;119.68;40.72;;;5.40;72.20;;;;;;4981146;28;20200;-87
2022/01/26 03:52:48;;;;;;;122.40;39.88;;;5.30;71.50;;;;;;4977842;28;20202;-87
2022/01/26 03:55:14;;;;;;;118.77;42.23;;;5.30;71.60;;;;;;4975019;28;20188;-88
2022/01/26 03:57:40;;;;;;;113.00;41.40;;;5.20;71.70;;;;;;4977404;28;20195;-88
2022/01/26 04:00:07;;;;;;;113.73;39.40;;;5.20;72.00;;;;;;4977771;28;20439;-87
2022/01/26 04:02:34;;;;;;;117.65;38.38;;;5.10;72.20;;;;;;4977361;28;20230;-88
2022/01/26 04:05:03;;;;;;;119.05;39.83;;;5.10;72.40;;;;;;4977459;28;20707;-88
2022/01/26 04:07:29;;;;;;;121.28;42.13;;;5.10;72.50;;;;;;4978616;28;20207;-88
2022/01/26 04:10:03;;;;;;;107.50;39.63;;;5.10;72.60;;;;;;4958324;28;20200;-88
2022/01/26 04:12:29;;;;;;;112.75;42.17;;;5.20;72.80;;;;;;4958068;28;20189;-88
2022/01/26 04:15:02;;;;;;;117.60;41.38;;;5.50;72.50;;;;;;4959577;29;20177;-88
2022/01/26 04:17:27;;;;;;;115.80;39.70;;;5.50;72.30;;;;;;4970900;28;20179;-87
2022/01/26 04:19:56;;;;;;;114.70;40.33;;;5.50;72.40;;;;;;4981664;28;20207;-89
2022/01/26 04:22:30;;;;;;;103.53;36.65;;;5.30;72.70;;;;;;4984132;28;20181;-88
2022/01/26 04:24:56;;;;;;;143.27;42.75;;;5.00;73.00;;;;;;4996748;28;20210;-88
2022/01/26 04:27:44;;;;;;;124.10;40.40;;;5.30;73.60;;;;;;4996759;28;20171;-88
2022/01/26 04:30:10;;;;;;;123.72;40.15;;;5.20;73.70;;;;;;4996239;28;20195;-88
2022/01/26 04:32:35;;;;;;;110.60;37.85;;;5.00;74.80;;;;;;4981462;28;20214;-88
2022/01/26 04:35:01;;;;;;;121.03;40.20;;;5.20;74.40;;;;;;4982110;28;20188;-89
2022/01/26 04:38:07;;;;;;;125.83;39.50;;;5.10;74.60;;;;;;4992096;28;20192;-88
2022/01/26 04:40:35;;;;;;;123.43;42.35;;;5.00;74.90;;;;;;4997620;28;20219;-88
2022/01/26 04:43:05;;;;;;;128.93;40.00;;;5.10;75.50;;;;;;4980154;28;20187;-87
2022/01/26 04:45:31;;;;;;;98.28;38.05;;;5.10;75.50;;;;;;4976877;28;20195;-88
2022/01/26 04:47:56;;;;;;;125.90;42.50;;;5.00;75.70;;;;;;4976648;28;20563;-88
2022/01/26 04:50:22;;;;;;;126.17;42.97;;;5.10;76.00;;;;;;4976438;28;20687;-87
2022/01/26 04:52:48;;;;;;;131.70;40.70;;;5.00;76.30;;;;;;4976351;28;20180;-87
2022/01/26 04:55:15;;;;;;;117.05;37.88;;;4.80;76.80;;;;;;4976032;28;20191;-87
2022/01/26 04:57:40;;;;;;;121.38;39.72;;;4.80;77.50;;;;;;4976708;28;20184;-88
2022/01/26 05:00:09;;;;;;;112.13;38.73;;;4.70;78.00;;;;;;4976540;28;20196;-88
2022/01/26 05:02:35;;;;;;;145.88;41.22;;;4.90;78.60;;;;;;4976192;28;20439;-87
2022/01/26 05:05:01;;;;;;;136.30;42.73;;;4.90;78.70;;;;;;4976471;28;20577;-88
2022/01/26 05:07:26;;;;;;;155.55;44.58;;;4.80;79.00;;;;;;4976375;28;20412;-87
2022/01/26 05:09:52;;;;;;;139.53;41.70;;;5.00;79.10;;;;;;4980353;28;20250;-87
2022/01/26 05:12:18;;;;;;;121.93;38.63;;;4.90;79.30;;;;;;4981199;28;20215;-88
2022/01/26 05:14:46;;;;;;;130.80;39.35;;;4.80;79.40;;;;;;4983809;28;20423;-88
2022/01/26 05:17:13;;;;;;;138.23;40.60;;;4.90;79.50;;;;;;4984167;28;20183;-87
2022/01/26 05:19:39;;;;;;;130.90;41.05;;;4.80;79.70;;;;;;4984070;28;20184;-87
2022/01/26 05:22:05;;;;;;;117.30;38.43;;;4.70;80.10;;;;;;4980332;28;20186;-87
2022/01/26 05:24:31;;;;;;;121.97;40.80;;;4.80;80.40;;;;;;4976357;28;20456;-87
2022/01/26 05:26:57;;;;;;;129.63;38.37;;;5.00;80.20;;;;;;4976587;28;20186;-87
2022/01/26 05:29:23;;;;;;;128.75;39.70;;;5.00;80.30;;;;;;4976910;28;20176;-87
2022/01/26 05:31:49;;;;;;;130.23;37.57;;;4.90;80.50;;;;;;4981066;28;20727;-87
2022/01/26 05:34:14;;;;;;;125.18;39.00;;;5.10;79.90;;;;;;4984081;28;20466;-88
2022/01/26 05:36:40;;;;;;;114.13;38.00;;;5.30;79.60;;;;;;4981842;28;20183;-87
2022/01/26 05:39:13;;;;;;;121.73;40.10;;;5.20;79.30;;;;;;4976106;28;20560;-88
2022/01/26 05:41:39;;;;;;;109.57;38.28;;;5.10;79.60;;;;;;4975739;28;20206;-87
2022/01/26 05:44:07;;;;;;;119.05;40.45;;;5.10;80.20;;;;;;4975390;28;20208;-87
2022/01/26 05:46:43;;;;;;;90.68;35.55;;;5.30;79.90;;;;;;4977339;28;20204;-88
2022/01/26 05:49:10;;;;;;;122.35;38.05;;;5.20;79.70;;;;;;4977021;28;20588;-87
2022/01/26 05:51:36;;;;;;;121.53;36.53;;;5.30;79.70;;;;;;4975492;28;20207;-88
2022/01/26 05:54:03;;;;;;;108.67;39.47;;;5.20;79.70;;;;;;4975616;28;20559;-87
2022/01/26 05:56:29;;;;;;;114.18;37.53;;;5.10;80.50;;;;;;4975743;28;20423;-87
2022/01/26 05:58:55;;;;;;;116.57;35.47;;;5.00;80.00;;;;;;4975810;28;20180;-88
2022/01/26 06:01:26;;;;;;;125.97;37.20;;;4.90;80.30;;;;;;4976965;28;20230;-87
2022/01/26 06:03:52;;;;;;;121.88;36.75;;;5.20;80.10;;;;;;4977007;28;20455;-88
2022/01/26 06:06:18;;;;;;;127.72;36.63;;;5.20;79.50;;;;;;4980398;28;20212;-88
2022/01/26 06:08:44;;;;;;;119.93;37.13;;;5.40;79.10;;;;;;4980600;28;20200;-87
2022/01/26 06:11:10;;;;;;;101.43;37.63;;;5.40;78.80;;;;;;4977645;28;20195;-87
2022/01/26 06:13:36;;;;;;;110.77;36.17;;;5.30;79.10;;;;;;4977445;28;20196;-87
2022/01/26 06:16:01;;;;;;;96.28;36.45;;;5.40;79.10;;;;;;4975964;28;20466;-87
2022/01/26 06:18:27;;;;;;;105.10;33.77;;;5.40;79.10;;;;;;4975911;28;20179;-87
2022/01/26 06:20:53;;;;;;;110.13;35.50;;;5.50;79.00;;;;;;4975171;28;20191;-88
2022/01/26 06:23:27;;;;;;;105.50;35.60;;;5.70;78.50;;;;;;4974981;28;20422;-87
2022/01/26 06:25:55;;;;;;;109.68;34.22;;;5.40;78.20;;;;;;4975481;28;20450;-87
2022/01/26 06:28:23;;;;;;;97.65;34.50;;;5.50;78.50;;;;;;4974899;28;20652;-87
2022/01/26 06:30:52;;;;;;;82.72;29.65;;;5.40;78.30;;;;;;4974910;28;20196;-87
2022/01/26 06:33:18;;;;;;;88.10;32.90;;;5.40;78.40;;;;;;4975265;28;20176;-87
2022/01/26 06:35:44;;;;;;;100.28;33.72;;;5.30;78.30;;;;;;4976616;28;20336;-87
2022/01/26 06:38:09;;;;;;;91.47;34.10;;;5.30;78.60;;;;;;4980572;28;20215;-86
2022/01/26 06:40:35;;;;;;;112.90;34.00;;;5.50;78.50;;;;;;4982489;28;20282;-87
2022/01/26 06:43:07;;;;;;;91.43;33.97;;;5.40;78.30;;;;;;4985099;28;20184;-88
2022/01/26 06:45:36;;;;;;;90.60;32.17;;;5.30;78.40;;;;;;4987944;28;20290;-87
2022/01/26 06:50:38;;;;;;;84.00;33.65;;;5.30;78.50;;;;;;4982692;28;20579;-86
2022/01/26 06:53:05;;;;;;;102.60;36.53;;;5.30;78.60;;;;;;4976538;28;20180;-86
2022/01/26 06:55:31;;;;;;;89.60;33.88;;;5.20;78.60;;;;;;4975315;28;20679;-87
2022/01/26 06:57:57;;;;;;;97.43;32.35;;;5.10;78.90;;;;;;4974468;28;20194;-87
2022/01/26 07:00:24;;;;;;;101.07;33.90;;;5.20;79.10;;;;;;4974702;28;20208;-87
2022/01/26 07:02:49;;;;;;;99.80;33.22;;;5.10;79.20;;;;;;4976189;28;20194;-87
2022/01/26 07:05:15;;;;;;;95.17;32.20;;;5.10;79.40;;;;;;4976266;28;20707;-87
2022/01/26 07:07:41;;;;;;;94.50;33.63;;;5.20;79.10;;;;;;4974993;28;20206;-87
2022/01/26 07:10:08;;;;;;;93.68;34.17;;;5.20;79.00;;;;;;4974898;28;20229;-87
2022/01/26 07:12:34;;;;;;;106.28;35.78;;;5.00;79.20;;;;;;4975068;28;20303;-87
2022/01/26 07:23:26;;;;;;;94.85;33.97;;;5.10;79.50;;;;;;4978283;28;20176;-87
2022/01/26 07:25:52;;;;;;;98.27;33.47;;;5.30;79.30;;;;;;4977220;28;20291;-88
2022/01/26 07:28:18;;;;;;;103.90;33.13;;;5.40;78.80;;;;;;4978914;28;20648;-88
2022/01/26 07:30:44;;;;;;;85.13;32.53;;;5.50;78.70;;;;;;4981872;28;20521;-87
2022/01/26 07:33:10;;;;;;;94.17;34.60;;;5.30;78.60;;;;;;4982765;28;20415;-87
2022/01/26 07:35:36;;;;;;;87.45;32.17;;;5.30;78.80;;;;;;4985338;28;20846;-87
2022/01/26 07:38:04;;;;;;;104.50;37.80;;;5.10;78.80;;;;;;4996167;28;20179;-87
2022/01/26 07:40:30;;;;;;;103.00;33.28;;;5.10;79.00;;;;;;4984039;28;20498;-88
2022/01/26 07:42:56;;;;;;;112.40;33.40;;;5.10;79.20;;;;;;4979051;28;20270;-87
2022/01/26 07:45:23;;;;;;;102.20;33.03;;;5.30;79.30;;;;;;4978625;28;20618;-88
2022/01/26 07:47:52;;;;;;;105.65;32.95;;;5.20;79.10;;;;;;4978832;28;20267;-88
2022/01/26 07:50:20;;;;;;;101.57;34.22;;;5.20;79.00;;;;;;4980924;28;20254;-87
2022/01/26 07:52:46;;;;;;;90.80;33.53;;;5.10;79.10;;;;;;4981338;28;20176;-88
2022/01/26 07:55:16;;;;;;;102.40;34.30;;;5.10;79.20;;;;;;4981927;28;20191;-87
2022/01/26 07:57:43;;;;;;;96.50;34.40;;;5.30;79.20;;;;;;4980966;28;20176;-88
2022/01/26 08:00:10;;;;;;;99.20;34.00;;;5.40;78.70;;;;;;4979290;28;20234;-87
2022/01/26 08:02:36;;;;;;;92.95;36.03;;;5.30;78.60;;;;;;4979095;28;20242;-87
2022/01/26 08:05:02;;;;;;;84.80;32.57;;;5.10;78.70;;;;;;4979487;28;20208;-87
2022/01/26 08:07:28;;;;;;;81.10;32.53;;;5.10;78.90;;;;;;4982670;28;20224;-87
2022/01/26 08:09:53;;;;;;;88.60;35.00;;;5.20;79.10;;;;;;4986761;28;20493;-88
2022/01/26 08:12:21;;;;;;;95.77;33.17;;;5.10;79.00;;;;;;4988098;28;20514;-86
2022/01/26 08:14:47;;;;;;;85.38;32.85;;;5.10;79.10;;;;;;4987478;28;20188;-87
2022/01/26 08:17:16;;;;;;;88.03;33.95;;;5.20;79.00;;;;;;4987083;28;20187;-87
2022/01/26 08:19:42;;;;;;;95.50;34.40;;;5.40;78.70;;;;;;4986847;28;20240;-87
2022/01/26 08:22:08;;;;;;;86.97;34.90;;;5.20;78.50;;;;;;4985765;28;20188;-87
2022/01/26 08:24:35;;;;;;;94.35;34.65;;;5.20;78.50;;;;;;4981843;28;20679;-87
2022/01/26 08:27:10;;;;;;;101.80;35.03;;;5.10;78.70;;;;;;4980972;28;20184;-87
2022/01/26 18:07:10;;;;;;;60.53;24.25;;;6.60;72.90;;;;;;4941086;29;20707;-88
2022/01/26 18:49:59;;;;;;;60.85;25.25;;;6.40;73.80;;;;;;4939031;29;20179;-88
2022/01/26 18:52:24;;;;;;;66.37;25.70;;;6.50;73.90;;;;;;4920075;29;20186;-88
2022/01/26 18:55:06;;;;;;;60.20;23.13;;;6.30;73.90;;;;;;4918632;29;20422;-88
2022/01/26 18:57:32;;;;;;;55.67;22.92;;;6.50;74.00;;;;;;4918604;29;20192;-87
2022/01/26 18:59:58;;;;;;;59.00;24.43;;;6.30;74.00;;;;;;4921103;29;20178;-88
2022/01/26 19:02:25;;;;;;;57.10;26.60;;;6.30;74.20;;;;;;4937562;29;20192;-86
2022/01/26 19:05:00;;;;;;;61.63;24.55;;;6.40;74.20;;;;;;4937903;29;20338;-87
2022/01/26 19:07:26;;;;;;;65.82;25.85;;;6.50;74.10;;;;;;4939089;29;20177;-87
2022/01/26 19:09:52;;;;;;;56.33;24.13;;;6.40;73.80;;;;;;4939561;29;20188;-86
2022/01/26 19:12:20;;;;;;;47.72;21.17;;;6.60;74.10;;;;;;4941050;29;20198;-89
2022/01/26 19:14:56;;;;;;;53.15;22.98;;;6.50;73.80;;;;;;4937604;29;20200;-88
2022/01/26 19:27:47;;;;;;;55.13;23.02;;;6.30;73.90;;;;;;4942067;29;20185;-87
2022/01/26 19:51:17;;;;;;;53.45;22.58;;;6.30;75.00;;;;;;4946545;29;20272;-87
2022/01/26 19:53:42;;;;;;;58.77;24.93;;;6.20;74.20;;;;;;4949115;29;20173;-87
2022/01/26 19:56:11;;;;;;;54.83;22.80;;;6.30;74.40;;;;;;4949673;29;20424;-89
2022/01/26 19:58:40;;;;;;;53.38;21.92;;;6.40;74.30;;;;;;4950975;29;20185;-88
2022/01/26 20:01:07;;;;;;;50.25;23.05;;;6.40;74.00;;;;;;4951585;29;20221;-87
2022/01/26 20:03:48;;;;;;;59.75;23.38;;;6.40;74.00;;;;;;4954263;29;20268;-87
2022/01/26 20:06:14;;;;;;;63.63;24.95;;;6.40;73.80;;;;;;4951739;29;20209;-88
2022/01/26 20:11:52;;;;;;;59.53;26.65;;;6.40;73.80;;;;;;4939960;29;20539;-88
2022/01/26 20:14:22;;;;;;;50.63;22.88;;;6.40;73.80;;;;;;4937723;29;20261;-90
2022/01/26 20:16:55;;;;;;;48.65;22.02;;;6.40;73.90;;;;;;4923299;29;20555;-88
2022/01/26 20:19:21;;;;;;;47.78;23.90;;;6.40;74.10;;;;;;4923851;29;20186;-89
2022/01/26 20:21:50;;;;;;;51.50;23.60;;;6.50;74.10;;;;;;4940039;29;20209;-87
2022/01/26 20:24:18;;;;;;;52.38;20.17;;;6.50;74.00;;;;;;4941651;29;20178;-87
2022/01/26 20:26:44;;;;;;;49.13;23.33;;;6.50;73.90;;;;;;4940903;29;20220;-87
2022/01/26 20:29:11;;;;;;;55.95;23.52;;;6.60;73.70;;;;;;4942425;29;20182;-87
2022/01/26 20:31:37;;;;;;;46.58;21.95;;;6.50;73.70;;;;;;4943356;29;20213;-87
2022/01/26 20:34:03;;;;;;;46.27;21.87;;;6.60;73.70;;;;;;4945504;29;20206;-87
2022/01/26 20:36:29;;;;;;;41.03;19.75;;;6.50;73.80;;;;;;4946441;29;20421;-87
2022/01/26 20:38:58;;;;;;;63.08;21.20;;;6.40;73.90;;;;;;4943569;29;20185;-87
2022/01/26 20:41:24;;;;;;;46.15;21.30;;;6.50;74.10;;;;;;4940631;29;20212;-87
2022/01/26 20:43:50;;;;;;;48.40;20.57;;;6.50;74.00;;;;;;4941727;29;20193;-87
2022/01/26 20:46:15;;;;;;;43.73;19.20;;;6.50;74.00;;;;;;4940551;29;20456;-87
2022/01/26 20:48:42;;;;;;;41.63;19.43;;;6.40;74.00;;;;;;4940640;29;20342;-88
2022/01/26 20:51:08;;;;;;;52.05;20.95;;;6.40;74.10;;;;;;4940602;29;20980;-88
2022/01/26 20:53:34;;;;;;;44.65;19.23;;;6.40;74.00;;;;;;4942164;29;20181;-87
2022/01/26 20:56:00;;;;;;;45.50;20.48;;;6.30;74.10;;;;;;4946919;29;20184;-87
2022/01/26 20:58:27;;;;;;;40.17;18.15;;;6.40;74.10;;;;;;4952998;29;20213;-88
2022/01/26 21:00:54;;;;;;;37.47;17.42;;;6.50;74.40;;;;;;4944217;29;20220;-87
2022/01/26 21:03:22;;;;;;;41.58;20.42;;;6.50;74.30;;;;;;4946697;29;20197;-86
2022/01/26 21:05:48;;;;;;;45.70;20.45;;;6.60;74.40;;;;;;4941045;29;20681;-86
2022/01/26 21:08:16;;;;;;;40.22;20.10;;;6.60;74.10;;;;;;4938402;29;20272;-87
2022/01/26 21:10:43;;;;;;;39.33;18.58;;;6.70;74.20;;;;;;4938351;29;20205;-86
2022/01/26 21:13:08;;;;;;;36.10;17.90;;;6.80;73.80;;;;;;4938751;29;20177;-88
2022/01/26 21:15:34;;;;;;;47.93;20.50;;;6.80;74.10;;;;;;4939049;29;20185;-86
2022/01/26 21:18:01;;;;;;;45.30;20.10;;;6.90;73.90;;;;;;4940117;29;20433;-87
2022/01/26 21:20:27;;;;;;;43.65;19.95;;;6.80;73.10;;;;;;4940032;29;20201;-87
2022/01/26 21:23:02;;;;;;;41.43;18.83;;;6.80;72.90;;;;;;4937826;29;20267;-87
2022/01/26 21:25:30;;;;;;;36.53;18.20;;;6.70;72.60;;;;;;4938151;29;20512;-87
2022/01/26 21:27:56;;;;;;;42.75;20.25;;;6.50;72.50;;;;;;4941133;29;20193;-87
2022/01/26 21:30:22;;;;;;;40.53;17.90;;;6.40;72.70;;;;;;4957875;28;20204;-90
2022/01/26 21:32:48;;;;;;;45.03;20.10;;;6.40;72.90;;;;;;4960307;29;20177;-87
2022/01/26 21:35:21;;;;;;;34.23;17.13;;;6.40;72.80;;;;;;4960020;29;20977;-88
2022/01/26 21:37:48;;;;;;;39.90;18.95;;;6.50;73.10;;;;;;4944081;29;20508;-87
2022/01/26 21:40:24;;;;;;;41.75;19.75;;;6.60;72.80;;;;;;4940191;29;20224;-88
2022/01/26 21:42:50;;;;;;;46.03;19.33;;;6.80;72.70;;;;;;4939818;29;20238;-88
2022/01/26 21:45:18;;;;;;;36.43;18.63;;;6.60;72.30;;;;;;4940093;29;20204;-88
2022/01/26 21:47:47;;;;;;;39.33;18.88;;;6.70;72.20;;;;;;4937393;29;20185;-87
2022/01/26 21:50:15;;;;;;;38.65;20.30;;;6.50;72.20;;;;;;4937099;29;20272;-88
2022/01/26 21:52:41;;;;;;;45.67;20.00;;;6.60;72.40;;;;;;4937639;29;20272;-88
2022/01/26 21:55:11;;;;;;;34.63;18.58;;;6.40;72.10;;;;;;4939345;29;20228;-87
2022/01/26 21:57:41;;;;;;;42.13;19.30;;;6.50;72.50;;;;;;4937910;29;20200;-87
2022/01/26 22:00:09;;;;;;;44.47;19.65;;;6.50;72.50;;;;;;4937001;29;20227;-87
2022/01/26 22:02:41;;;;;;;38.85;20.23;;;6.50;72.60;;;;;;4937411;29;20177;-88
2022/01/26 22:05:13;;;;;;;43.25;19.98;;;6.50;72.50;;;;;;4937313;29;20213;-87
2022/01/26 22:07:39;;;;;;;36.53;18.75;;;6.60;72.40;;;;;;4937539;29;20185;-87
2022/01/26 22:10:17;;;;;;;42.50;17.10;;;6.60;72.50;;;;;;4937203;29;20186;-87
2022/01/26 22:12:48;;;;;;;48.30;19.63;;;6.60;72.10;;;;;;4937210;29;20452;-87
2022/01/26 22:15:16;;;;;;;39.08;20.30;;;6.50;72.20;;;;;;4937252;29;20551;-89
2022/01/26 22:17:46;;;;;;;39.10;18.17;;;6.40;72.10;;;;;;4937324;29;20213;-89
2022/01/26 22:20:12;;;;;;;37.65;18.45;;;6.30;72.40;;;;;;4937609;29;20205;-89
2022/01/26 22:22:41;;;;;;;39.47;20.63;;;6.20;72.70;;;;;;4938046;29;20181;-88
2022/01/26 22:25:08;;;;;;;40.15;19.20;;;6.30;73.00;;;;;;4937768;29;20869;-88
2022/01/26 22:27:43;;;;;;;39.05;19.05;;;6.50;72.80;;;;;;4937270;29;20558;-89
2022/01/26 22:30:13;;;;;;;38.55;18.38;;;6.40;72.50;;;;;;4936729;29;20251;-87
2022/01/26 22:32:39;;;;;;;42.28;18.83;;;6.40;72.90;;;;;;4936913;29;20193;-87
2022/01/26 22:35:05;;;;;;;40.78;18.02;;;6.40;72.80;;;;;;4936510;29;20332;-87
2022/01/26 22:37:31;;;;;;;36.10;17.35;;;6.50;72.80;;;;;;4938676;29;20190;-87
2022/01/26 22:40:08;;;;;;;37.95;17.70;;;6.50;72.80;;;;;;4955937;28;20185;-87
2022/01/26 22:42:33;;;;;;;35.45;17.70;;;6.40;72.60;;;;;;4956914;29;20192;-87
2022/01/26 22:44:59;;;;;;;38.20;17.83;;;6.40;72.70;;;;;;4956349;29;20212;-87
2022/01/26 22:47:25;;;;;;;35.80;18.30;;;6.50;72.70;;;;;;4959331;29;20184;-86
2022/01/26 22:49:51;;;;;;;43.17;19.00;;;6.40;72.60;;;;;;4972978;28;20185;-87
2022/01/26 22:52:17;;;;;;;38.00;18.03;;;6.50;72.80;;;;;;4949747;29;20445;-87
2022/01/26 22:54:42;;;;;;;36.93;17.03;;;6.60;72.60;;;;;;4938269;29;20480;-87
2022/01/26 22:57:08;;;;;;;35.73;17.97;;;6.80;72.30;;;;;;4941391;29;20425;-87
2022/01/26 22:59:34;;;;;;;42.37;19.40;;;6.80;72.20;;;;;;4944612;29;20565;-87
2022/01/26 23:04:39;;;;;;;38.60;16.80;;;6.70;72.30;;;;;;4966814;29;20267;-87
2022/01/26 23:07:05;;;;;;;39.95;17.85;;;6.60;72.10;;;;;;4961812;29;20188;-86
2022/01/26 23:09:34;;;;;;;38.00;18.40;;;6.60;72.20;;;;;;4957696;29;20266;-87
2022/01/26 23:12:00;;;;;;;35.63;17.25;;;6.80;72.70;;;;;;4955403;28;20576;-86
2022/01/26 23:14:30;;;;;;;36.50;16.70;;;6.80;72.20;;;;;;4955200;29;20555;-86
2022/01/26 23:16:55;;;;;;;31.30;15.95;;;6.90;72.30;;;;;;4951300;29;20867;-86
2022/01/26 23:19:21;;;;;;;35.37;17.20;;;6.80;71.90;;;;;;4943433;29;20182;-88
2022/01/26 23:21:47;;;;;;;32.47;19.03;;;6.70;72.00;;;;;;4942380;29;20225;-87
2022/01/26 23:24:12;;;;;;;35.97;16.97;;;6.60;72.10;;;;;;4936389;29;20240;-87
2022/01/26 23:26:44;;;;;;;40.80;16.30;;;6.60;72.30;;;;;;4937079;29;20472;-86
2022/01/26 23:29:32;;;;;;;37.40;16.83;;;6.60;72.50;;;;;;4939313;29;20484;-87
2022/01/26 23:38:02;;;;;;;33.05;16.48;;;6.70;72.80;;;;;;4939141;29;20168;-86
